Sunday, January 21, 2018, 3:37 PM EST
Back to Local

KAQW, N Adams Harriman-and-west

Location: North Adams, MA, United States Lat: 42.7
Local Time: 3:37 PM EST (20:37 GMT) Lon: -73.167
Time Zone: US/Eastern Elev: 652 ft

Show me the last for .
Show Decoded

2018-01-21 14:52 METAR KAQW 211952Z AUTO 00000KT 10SM BKN029 04/M02 A3012 RMK AO2 SLP207
                 T00441022 =
2018-01-21 13:52 METAR KAQW 211852Z AUTO 29003KT 10SM OVC029 05/M02 A3012 RMK AO2 SLP206
                 T00501022 =
2018-01-21 12:52 METAR KAQW 211752Z AUTO 00000KT 10SM OVC029 04/M02 A3012 RMK AO2 SLP206
                 T00441017 10050 20006 58013 =
2018-01-21 12:40 METAR KAQW 211740Z AUTO VRB03KT 10SM BKN029 04/M02 A3012 RMK AO2 T00441017 =
2018-01-21 11:52 METAR KAQW 211652Z AUTO 33004KT 10SM OVC031 04/M02 A3014 RMK AO2 SLP211
                 T00441017 =
2018-01-21 11:43 METAR KAQW 211643Z AUTO 00000KT 10SM OVC030 04/M02 A3014 RMK AO2 T00391017 =
2018-01-21 10:52 METAR KAQW 211552Z AUTO 00000KT 9SM OVC027 03/M02 A3017 RMK AO2 SLP222 T00281017
                 =
2018-01-21 09:52 METAR KAQW 211452Z AUTO 00000KT 9SM BKN022 OVC032 02/M02 A3016 RMK AO2 SLP220
                 T00221017 51019 =
2018-01-21 09:27 METAR KAQW 211427Z AUTO 00000KT 9SM SCT022 OVC032 02/M02 A3015 RMK AO2 T00171022
                 =
2018-01-21 08:52 METAR KAQW 211352Z AUTO 25004KT 9SM BKN022 OVC033 02/M02 A3014 RMK AO2 SLP212
                 T00171022 =
2018-01-21 08:20 METAR KAQW 211320Z AUTO 00000KT 9SM BKN023 OVC031 01/M02 A3012 RMK AO2 T00111022
                 =
2018-01-21 07:52 METAR KAQW 211252Z AUTO 27004KT 9SM SCT032 01/M03 A3010 RMK AO2 SLP201 T00111028
                 =
2018-01-21 06:52 METAR KAQW 211152Z AUTO 31003KT 10SM OVC031 02/M02 A3008 RMK AO2 SLP193
                 T00171022 10033 20017 51021 =
2018-01-21 05:52 METAR KAQW 211052Z AUTO VRB06KT 10SM OVC031 02/M02 A3007 RMK AO2 SLP188
                 T00221022 =
2018-01-21 04:52 METAR KAQW 210952Z AUTO 24014G22KT 10SM BKN032 03/M02 A3004 RMK AO2 SLP177
                 T00331022 =
2018-01-21 03:52 METAR KAQW 210852Z AUTO 27012KT 10SM SCT029 02/M03 A3002 RMK AO2 SLP171
                 T00221028 50011 =
2018-01-21 02:52 METAR KAQW 210752Z AUTO 27012KT 10SM OVC035 02/M03 A3004 RMK AO2 SLP179
                 T00221028 =
2018-01-21 01:52 METAR KAQW 210652Z AUTO 27006KT 10SM BKN031 03/M03 A3002 RMK AO2 SLP170
                 T00281028 =
2018-01-21 00:52 METAR KAQW 210552Z AUTO 28006KT 10SM SCT033 03/M03 A2999 RMK AO2 SLP160
                 T00331028 10050 20006 51003 =
2018-01-20 23:52 METAR KAQW 210452Z AUTO 30006KT 10SM CLR 03/M03 A2998 RMK AO2 SLP159 T00331028
                 400721106 =
2018-01-20 22:52 METAR KAQW 210352Z AUTO VRB03KT 10SM SCT037 03/M03 A2999 RMK AO2 SLP161
                 T00331028 =
2018-01-20 21:52 METAR KAQW 210252Z AUTO VRB05KT 10SM FEW035 03/M03 A2998 RMK AO2 SLP159
                 T00331028 52019 =
2018-01-20 20:52 METAR KAQW 210152Z AUTO 30005KT 10SM CLR 03/M03 A2995 RMK AO2 SLP152 T00331033 =
2018-01-20 19:52 METAR KAQW 210052Z AUTO 30005KT 10SM CLR 04/M03 A2994 RMK AO2 SLP148 T00441028 =
2018-01-20 18:52 METAR KAQW 202352Z AUTO 22005KT 10SM CLR 04/M03 A2992 RMK AO2 SLP141 T00391033
                 10072 20028 51036 =
2018-01-20 17:52 METAR KAQW 202252Z AUTO VRB04KT 10SM CLR 03/M03 A2990 RMK AO2 SLP133 T00281033 =
2018-01-20 16:52 METAR KAQW 202152Z AUTO 29003KT 10SM CLR 06/M03 A2985 RMK AO2 SLP116 T00561033 =
2018-01-20 15:52 METAR KAQW 202052Z AUTO 27012G17KT 10SM CLR 07/M03 A2981 RMK AO2 SLP104
                 T00671033 53017 =

Support USWX by starting your Amazon purchase here.